Brown Field Municipal Airport
KSDM : rendu visible

Aérodrome :











RETROUVEZ-NOUS SUR...

 
LOGIN :

S'inscrire | Disclaimer

   EN    FR    IT 

 









Légende :    VFR   VFR Marginal   IFR   IFR Intensif   IFR Très Intensif
Visi : 
Plafond : 
>= 8 km
>= 3000ft
5 à 8 km
1000 à 3000 ft
1500m à 5 km
500 à 1000 ft
800 à 1500m
200 à 500 ft
< 800m
< 200 ft
Symboles :   Orages  Brouillard  Fortes neiges  Fortes précipitations  Vent > 20 kt






- Altitude de l'aérodrome : 526 ft


KSDM - Brown Field Municipal

DERNIER METAR :
  • 180853Z AUTO 07005KT 10SM CLR 07/06 A3019 RMK AO2 SLP222 T00720056 58004

METARs EXPIRÉS :
  • 180753Z AUTO 00000KT 10SM CLR 08/06 A3020 RMK AO2 SLP225 T00780061 401560072
  • 180653Z AUTO 07007KT 10SM CLR 09/07 A3020 RMK AO2 SLP226 T00940067

TAF N/A



MET'MAP, la Météo Aéronautique d'un coup d'oeil ! - Copyright ORBIFLY Décembre 2007 - Disclaimer

ORBIFLY MET'MAP TEAM :

Programmation & Développement : Alexandra Zaïnal
Sur une idée originale de : Baudouin d'Aumeries
Assistance à la programmation : Marc-Olivier Méhu
Soutien technique & logistique : Manuel Goepfert

Contact : metmap@orbifly.com




SOURCES & CREDITS :

   NOAA       Earth
Advisory